Time;durP1;ratioP1;P1;durP2;ratioP2;P2;SDS_P1;SDS_P2;PMS_P1;PMS_P2;Temp;Humidity;BMP_temperature;BMP_pressure;BME280_temperature;BME280_humidity;BME280_pressure;Samples;Min_cycle;Max_cycle;Signal;HPM_P1;HPM_P2
2023/03/24 00:01:04;;;;;;;1.45;0.68;;;11.10;99.90;;;;;;4949975;28;20054;-83
2023/03/24 00:03:30;;;;;;;0.35;0.35;;;11.10;99.90;;;;;;4963537;28;20503;-81
2023/03/24 00:06:00;;;;;;;0.50;0.50;;;11.10;99.90;;;;;;4962853;28;20043;-84
2023/03/24 00:08:29;;;;;;;0.32;0.32;;;11.20;99.90;;;;;;4949375;28;20104;-83
2023/03/24 00:11:00;;;;;;;0.63;0.60;;;11.20;99.90;;;;;;4965774;28;20043;-83
2023/03/24 00:13:26;;;;;;;2.22;0.70;;;11.20;99.90;;;;;;4964586;28;20066;-84
2023/03/24 00:15:52;;;;;;;0.30;0.30;;;11.20;99.90;;;;;;4949368;28;20399;-83
2023/03/24 00:18:21;;;;;;;0.55;0.55;;;11.10;99.90;;;;;;4963117;28;20046;-83
2023/03/24 00:20:47;;;;;;;0.30;0.30;;;11.10;99.90;;;;;;4949206;28;20050;-84
2023/03/24 00:23:14;;;;;;;;;;;11.10;99.90;;;;;;4949279;28;20419;-84
2023/03/24 00:25:39;;;;;;;0.40;0.40;;;11.10;99.90;;;;;;4966946;28;20008;-84
2023/03/24 00:28:06;;;;;;;0.30;0.30;;;11.10;99.90;;;;;;4950903;28;20047;-84
2023/03/24 00:30:33;;;;;;;1.25;0.80;;;11.10;99.90;;;;;;4961404;28;20101;-84
2023/03/24 00:33:00;;;;;;;0.45;0.45;;;11.10;99.90;;;;;;4946939;28;20039;-83
2023/03/24 00:35:27;;;;;;;0.22;0.22;;;11.10;99.90;;;;;;4994649;28;20053;-84
2023/03/24 00:37:53;;;;;;;0.65;0.55;;;11.10;99.90;;;;;;4975882;28;20048;-85
2023/03/24 00:40:20;;;;;;;0.40;0.40;;;11.10;99.90;;;;;;4970005;28;20540;-83
2023/03/24 00:42:47;;;;;;;0.30;0.30;;;11.00;99.90;;;;;;4954735;28;20054;-83
2023/03/24 00:45:19;;;;;;;0.50;0.50;;;11.10;99.90;;;;;;4978529;28;20043;-84
2023/03/24 00:47:45;;;;;;;0.57;0.57;;;11.00;99.90;;;;;;4966853;28;20053;-82
2023/03/24 00:50:19;;;;;;;0.50;0.50;;;11.10;99.90;;;;;;4966302;28;20039;-83
2023/03/24 00:52:46;;;;;;;0.52;0.52;;;11.00;99.90;;;;;;4961719;28;20059;-81
2023/03/24 00:55:14;;;;;;;0.30;0.30;;;11.00;99.90;;;;;;4962538;28;20043;-81
2023/03/24 00:57:48;;;;;;;0.43;0.43;;;11.00;99.90;;;;;;4962640;28;20046;-85
2023/03/24 01:00:19;;;;;;;0.40;0.40;;;11.00;99.90;;;;;;4963237;28;20057;-83
2023/03/24 01:02:47;;;;;;;0.40;0.40;;;11.00;99.90;;;;;;4947387;28;20046;-83
2023/03/24 01:05:13;;;;;;;0.40;0.40;;;11.00;99.90;;;;;;4962701;28;20046;-84
2023/03/24 01:07:40;;;;;;;0.30;0.30;;;11.00;99.90;;;;;;4963574;28;20071;-81
2023/03/24 01:10:11;;;;;;;0.75;0.75;;;11.00;99.90;;;;;;4961050;28;20046;-84
2023/03/24 01:12:37;;;;;;;0.45;0.45;;;11.00;99.90;;;;;;4946523;28;20104;-84
2023/03/24 01:15:07;;;;;;;1.05;0.95;;;11.00;99.90;;;;;;4943593;28;20549;-84
2023/03/24 01:17:33;;;;;;;0.50;0.50;;;11.00;99.90;;;;;;4948124;28;20043;-84
2023/03/24 01:20:01;;;;;;;0.40;0.40;;;11.00;99.90;;;;;;4955735;28;20087;-84
2023/03/24 01:22:29;;;;;;;0.30;0.30;;;11.00;99.90;;;;;;4962504;28;20123;-83
2023/03/24 01:24:55;;;;;;;0.35;0.35;;;11.00;99.90;;;;;;4962734;28;20076;-83
2023/03/24 01:27:21;;;;;;;0.20;0.20;;;11.00;99.90;;;;;;4963324;28;20051;-84
2023/03/24 01:29:47;;;;;;;0.80;0.50;;;11.00;99.90;;;;;;4963567;28;20077;-84
2023/03/24 01:32:13;;;;;;;0.75;0.75;;;11.00;99.90;;;;;;4948303;28;20473;-86
2023/03/24 01:34:39;;;;;;;0.30;0.30;;;11.00;99.90;;;;;;4946447;28;20480;-83
2023/03/24 01:37:04;;;;;;;1.80;0.60;;;11.00;99.90;;;;;;4942847;28;20057;-84
2023/03/24 01:39:31;;;;;;;0.80;0.80;;;11.00;99.90;;;;;;4964912;28;20406;-84
2023/03/24 01:41:57;;;;;;;0.50;0.50;;;11.00;99.90;;;;;;4967839;28;20134;-84
2023/03/24 01:44:33;;;;;;;0.40;0.40;;;11.00;99.90;;;;;;4961954;28;20126;-84
2023/03/24 01:47:00;;;;;;;0.60;0.60;;;11.00;99.90;;;;;;4970179;28;20054;-85
2023/03/24 01:49:35;;;;;;;0.50;0.50;;;11.00;99.90;;;;;;4965619;28;20057;-83
2023/03/24 01:52:06;;;;;;;0.73;0.73;;;11.00;99.90;;;;;;4963440;28;20046;-84
2023/03/24 01:54:47;;;;;;;0.40;0.40;;;11.00;99.90;;;;;;4945879;28;20050;-83
2023/03/24 01:57:31;;;;;;;2.83;1.08;;;11.00;99.90;;;;;;4962998;28;20077;-84
2023/03/24 02:00:03;;;;;;;1.55;1.45;;;11.00;99.90;;;;;;4963774;28;20109;-82
2023/03/24 02:02:33;;;;;;;1.35;1.25;;;11.00;99.90;;;;;;4964817;28;20041;-84
2023/03/24 02:05:03;;;;;;;0.30;0.30;;;11.00;99.90;;;;;;4960602;28;20046;-83
2023/03/24 02:07:58;;;;;;;0.40;0.40;;;11.00;99.90;;;;;;4949124;28;20042;-83
2023/03/24 02:10:25;;;;;;;0.30;0.30;;;11.00;99.90;;;;;;4961827;28;20081;-82
2023/03/24 02:12:51;;;;;;;0.20;0.20;;;11.00;99.90;;;;;;4961537;28;20046;-82
2023/03/24 02:15:18;;;;;;;1.55;1.45;;;11.00;99.90;;;;;;4962397;28;20042;-83
2023/03/24 02:17:56;;;;;;;0.85;0.70;;;11.00;99.90;;;;;;4965349;28;20059;-83
2023/03/24 02:20:54;;;;;;;0.52;0.32;;;11.00;99.90;;;;;;4962097;28;20042;-83
2023/03/24 02:23:30;;;;;;;0.40;0.40;;;11.00;99.90;;;;;;4949778;28;20050;-83
2023/03/24 02:26:04;;;;;;;0.30;0.30;;;11.00;99.90;;;;;;4964533;28;20044;-83
2023/03/24 02:28:39;;;;;;;0.30;0.30;;;11.10;99.90;;;;;;4962723;28;20484;-84
2023/03/24 02:31:32;;;;;;;0.50;0.50;;;11.00;99.90;;;;;;4962823;28;20463;-84
2023/03/24 02:34:12;;;;;;;0.20;0.20;;;11.00;99.90;;;;;;4986163;28;20127;-82
2023/03/24 02:37:02;;;;;;;0.40;0.40;;;11.00;99.90;;;;;;4965787;28;20568;-84
2023/03/24 02:39:32;;;;;;;0.40;0.40;;;11.10;99.90;;;;;;4967378;28;20043;-84
2023/03/24 02:42:10;;;;;;;0.40;0.40;;;11.10;99.90;;;;;;4962234;28;20068;-85
2023/03/24 02:44:48;;;;;;;0.60;0.60;;;11.10;99.90;;;;;;4962703;28;20043;-85
2023/03/24 02:47:42;;;;;;;0.77;0.77;;;11.10;99.90;;;;;;4964990;28;20074;-85
2023/03/24 02:50:15;;;;;;;0.63;0.63;;;11.10;99.90;;;;;;4963024;28;20070;-85
2023/03/24 02:52:58;;;;;;;0.60;0.60;;;11.10;99.90;;;;;;4941324;28;20111;-84
2023/03/24 02:55:52;;;;;;;0.57;0.40;;;11.10;99.90;;;;;;4963737;28;20046;-85
2023/03/24 02:58:30;;;;;;;10.55;2.15;;;11.20;99.90;;;;;;4961391;28;20137;-85
2023/03/24 03:01:30;;;;;;;0.30;0.30;;;11.20;99.90;;;;;;4963168;28;20365;-85
2023/03/24 03:04:11;;;;;;;0.38;0.38;;;11.20;99.90;;;;;;4964083;28;20063;-83
2023/03/24 03:06:44;;;;;;;0.30;0.30;;;11.30;99.90;;;;;;4962839;28;20047;-84
2023/03/24 03:09:14;;;;;;;0.30;0.30;;;11.20;99.90;;;;;;4963754;28;20055;-84
2023/03/24 03:11:43;;;;;;;0.30;0.30;;;11.30;99.90;;;;;;4963250;28;20043;-84
2023/03/24 03:14:14;;;;;;;0.80;0.50;;;11.30;99.90;;;;;;4960565;28;20120;-84
2023/03/24 03:16:53;;;;;;;0.43;0.43;;;11.30;99.90;;;;;;4964675;28;20435;-84
2023/03/24 03:19:23;;;;;;;0.40;0.30;;;11.30;99.90;;;;;;4945380;28;20062;-84
2023/03/24 03:21:51;;;;;;;0.40;0.40;;;11.40;99.90;;;;;;4960903;28;20049;-83
2023/03/24 03:24:29;;;;;;;1.33;0.63;;;11.40;99.90;;;;;;4962816;28;20087;-84
2023/03/24 03:27:04;;;;;;;0.73;0.60;;;11.40;99.90;;;;;;4954960;28;20039;-84
2023/03/24 03:29:37;;;;;;;0.30;0.30;;;11.40;99.90;;;;;;4961144;28;20053;-83
2023/03/24 03:32:08;;;;;;;3.00;1.65;;;11.40;99.90;;;;;;4950739;28;20118;-82
2023/03/24 03:34:56;;;;;;;0.40;0.40;;;11.50;99.90;;;;;;4949270;28;20054;-83
2023/03/24 03:37:43;;;;;;;0.30;0.30;;;11.50;99.90;;;;;;4963098;28;20411;-83
2023/03/24 03:40:14;;;;;;;0.30;0.30;;;11.40;99.90;;;;;;4960795;28;20038;-83
2023/03/24 03:42:40;;;;;;;0.73;0.70;;;11.30;99.90;;;;;;4961686;28;20057;-83
2023/03/24 03:45:09;;;;;;;0.77;0.60;;;11.20;99.90;;;;;;4944934;28;20403;-82
2023/03/24 03:47:36;;;;;;;0.20;0.20;;;11.10;99.90;;;;;;4962017;28;20081;-82
2023/03/24 03:50:03;;;;;;;0.75;0.75;;;11.00;99.90;;;;;;4962032;28;20043;-83
2023/03/24 03:52:29;;;;;;;0.57;0.57;;;11.00;99.90;;;;;;4945150;28;20050;-82
2023/03/24 03:54:56;;;;;;;0.20;0.20;;;10.90;99.90;;;;;;4944145;28;20046;-84
2023/03/24 03:57:22;;;;;;;0.65;0.40;;;10.90;99.90;;;;;;4947173;28;20452;-83
2023/03/24 03:59:48;;;;;;;0.70;0.70;;;10.80;99.90;;;;;;4959445;28;20101;-84
2023/03/24 04:02:40;;;;;;;0.57;0.57;;;10.80;99.90;;;;;;4962752;28;20051;-83
2023/03/24 04:05:13;;;;;;;0.73;0.52;;;10.70;99.90;;;;;;4967623;28;20047;-84
2023/03/24 04:07:56;;;;;;;0.52;0.52;;;10.70;99.90;;;;;;4961131;28;20054;-83
2023/03/24 04:10:49;;;;;;;0.45;0.45;;;10.60;99.90;;;;;;4960502;28;20042;-83
2023/03/24 04:13:35;;;;;;;0.52;0.52;;;10.60;99.90;;;;;;4946961;28;20380;-84
2023/03/24 04:16:39;;;;;;;0.35;0.35;;;10.60;99.90;;;;;;4960997;28;20525;-82
2023/03/24 04:19:11;;;;;;;0.30;0.30;;;10.60;99.90;;;;;;4967493;28;20043;-82
2023/03/24 04:21:50;;;;;;;0.38;0.38;;;10.50;99.90;;;;;;4949297;28;20507;-83
2023/03/24 04:24:44;;;;;;;0.40;0.40;;;10.50;99.90;;;;;;4964170;28;20059;-84
2023/03/24 04:27:28;;;;;;;0.38;0.38;;;10.40;99.90;;;;;;4942394;28;20042;-83
2023/03/24 04:30:31;;;;;;;2.80;1.73;;;10.30;99.90;;;;;;4947467;28;20047;-85
2023/03/24 04:32:57;;;;;;;0.50;0.50;;;10.30;99.90;;;;;;4950469;28;20043;-85
2023/03/24 04:35:30;;;;;;;0.30;0.30;;;10.20;99.90;;;;;;4963828;28;20036;-84
2023/03/24 04:38:01;;;;;;;0.30;0.30;;;10.10;99.90;;;;;;4951764;28;20500;-84
2023/03/24 04:40:31;;;;;;;0.30;0.30;;;10.00;99.90;;;;;;4971325;28;20054;-85
2023/03/24 04:43:00;;;;;;;0.35;0.35;;;10.00;99.90;;;;;;4968897;28;20070;-84
2023/03/24 04:45:26;;;;;;;0.70;0.70;;;9.90;99.90;;;;;;4961534;28;20047;-84
2023/03/24 04:47:58;;;;;;;0.90;0.60;;;9.80;99.90;;;;;;4966569;28;20039;-84
2023/03/24 04:50:36;;;;;;;0.40;0.40;;;9.70;99.90;;;;;;4966356;28;20069;-84
2023/03/24 04:53:03;;;;;;;0.40;0.40;;;9.70;99.90;;;;;;4966644;28;20042;-86
2023/03/24 04:55:53;;;;;;;0.70;0.70;;;9.70;99.90;;;;;;4967657;28;20031;-85
2023/03/24 04:58:22;;;;;;;0.30;0.30;;;9.60;99.90;;;;;;4967139;28;20074;-83
2023/03/24 05:00:48;;;;;;;0.40;0.40;;;9.60;99.90;;;;;;4959332;28;20046;-84
2023/03/24 05:03:16;;;;;;;0.52;0.52;;;9.60;99.90;;;;;;4963135;28;20054;-85
2023/03/24 05:05:43;;;;;;;0.40;0.40;;;9.50;99.90;;;;;;4965280;28;20054;-84
2023/03/24 05:08:09;;;;;;;0.40;0.40;;;9.40;99.90;;;;;;4964877;28;20044;-85
2023/03/24 05:10:36;;;;;;;0.50;0.50;;;9.40;99.90;;;;;;4965238;28;20039;-84
2023/03/24 05:13:05;;;;;;;0.40;0.40;;;9.40;99.90;;;;;;4949625;28;20045;-82
2023/03/24 05:15:31;;;;;;;0.50;0.50;;;9.40;99.90;;;;;;4955648;28;20043;-83
2023/03/24 05:17:57;;;;;;;;;;;9.30;99.90;;;;;;4964855;28;20047;-83
2023/03/24 05:20:24;;;;;;;0.40;0.40;;;9.40;99.90;;;;;;4937815;28;19922;-85
2023/03/24 05:22:50;;;;;;;0.45;0.45;;;9.30;99.90;;;;;;4947741;28;20172;-83
2023/03/24 05:25:17;;;;;;;0.50;0.50;;;9.30;99.90;;;;;;4946271;28;20064;-85
2023/03/24 05:27:43;;;;;;;0.40;0.40;;;9.30;99.90;;;;;;4950972;28;20043;-83
2023/03/24 05:30:10;;;;;;;0.40;0.40;;;9.30;99.90;;;;;;4932309;28;20045;-81
2023/03/24 05:32:36;;;;;;;0.40;0.40;;;9.30;99.90;;;;;;4926116;28;20031;-84
2023/03/24 05:35:02;;;;;;;0.50;0.50;;;9.30;99.90;;;;;;4947366;28;20502;-83
2023/03/24 05:37:27;;;;;;;;;;;9.30;99.90;;;;;;4965888;28;20051;-83
2023/03/24 05:39:53;;;;;;;0.57;0.57;;;9.30;99.90;;;;;;4965214;28;20343;-85
2023/03/24 05:42:19;;;;;;;0.57;0.57;;;9.40;99.90;;;;;;4962462;28;20085;-83
2023/03/24 05:44:45;;;;;;;;;;;9.50;99.90;;;;;;4961544;28;20089;-83
2023/03/24 05:47:14;;;;;;;0.40;0.40;;;9.40;99.90;;;;;;4959004;28;19922;-85
2023/03/24 05:49:41;;;;;;;0.45;0.45;;;9.40;99.90;;;;;;4973921;28;20050;-86
2023/03/24 05:52:08;;;;;;;0.98;0.98;;;9.50;99.90;;;;;;4950980;28;20392;-84
2023/03/24 05:54:34;;;;;;;0.40;0.40;;;9.50;99.90;;;;;;4964007;28;20070;-84
2023/03/24 05:57:00;;;;;;;0.60;0.60;;;9.50;99.90;;;;;;4962891;28;20396;-83
2023/03/24 05:59:26;;;;;;;;;;;9.50;99.90;;;;;;4963758;28;20403;-83
2023/03/24 06:01:55;;;;;;;1.00;0.70;;;9.60;99.90;;;;;;4963401;28;19918;-82
2023/03/24 06:04:22;;;;;;;0.40;0.40;;;9.60;99.90;;;;;;4943662;28;20035;-83
2023/03/24 06:06:48;;;;;;;2.45;2.25;;;9.60;99.90;;;;;;4948513;28;20043;-83
2023/03/24 06:09:15;;;;;;;0.60;0.60;;;9.70;99.90;;;;;;4948128;28;20134;-82
2023/03/24 06:11:43;;;;;;;0.38;0.38;;;9.70;99.90;;;;;;4940599;28;20058;-82
2023/03/24 06:14:09;;;;;;;0.40;0.40;;;9.60;99.90;;;;;;4959066;28;20181;-82
2023/03/24 06:16:37;;;;;;;0.52;0.52;;;9.60;99.90;;;;;;4942599;29;20130;-83
2023/03/24 06:19:05;;;;;;;1.00;1.00;;;9.60;99.90;;;;;;4962793;28;20656;-84
2023/03/24 06:21:32;;;;;;;0.40;0.40;;;9.60;99.90;;;;;;4962743;28;20050;-83
2023/03/24 06:23:58;;;;;;;1.13;0.77;;;9.60;99.90;;;;;;4964404;28;20061;-84
2023/03/24 06:26:24;;;;;;;;;;;9.60;99.90;;;;;;4964931;28;20057;-83
2023/03/24 06:28:50;;;;;;;0.40;0.40;;;9.60;99.90;;;;;;4966817;28;19926;-83
2023/03/24 06:31:20;;;;;;;0.70;0.70;;;9.60;99.90;;;;;;4964766;28;20047;-84
2023/03/24 06:33:52;;;;;;;1.85;1.75;;;9.60;99.90;;;;;;4948116;28;20043;-83
2023/03/24 06:36:18;;;;;;;0.50;0.50;;;9.70;99.90;;;;;;4964430;28;20513;-82
2023/03/24 06:38:44;;;;;;;0.40;0.40;;;9.60;99.90;;;;;;4959991;28;20070;-82
2023/03/24 06:41:13;;;;;;;0.40;0.40;;;9.60;99.90;;;;;;4965777;28;20052;-84
2023/03/24 06:43:38;;;;;;;2.83;2.63;;;9.60;99.90;;;;;;4954253;28;20291;-85
2023/03/24 06:46:04;;;;;;;0.40;0.40;;;9.60;99.90;;;;;;4975381;28;20051;-83
2023/03/24 06:48:30;;;;;;;0.40;0.40;;;9.60;99.90;;;;;;4961481;28;20158;-86
2023/03/24 06:50:56;;;;;;;0.30;0.30;;;9.60;99.90;;;;;;4957013;28;20050;-85
2023/03/24 06:53:22;;;;;;;0.40;0.40;;;9.60;99.90;;;;;;4964152;28;20499;-84
2023/03/24 06:55:48;;;;;;;0.30;0.30;;;9.70;99.90;;;;;;4960312;28;20034;-81
2023/03/24 06:58:15;;;;;;;0.40;0.40;;;9.70;99.90;;;;;;4959519;28;20090;-83
2023/03/24 07:00:41;;;;;;;0.40;0.40;;;9.70;99.90;;;;;;4964315;28;20073;-84
2023/03/24 07:03:07;;;;;;;0.50;0.50;;;9.70;99.90;;;;;;4955779;28;20039;-81
2023/03/24 07:05:42;;;;;;;0.40;0.40;;;9.70;99.90;;;;;;4946370;28;20555;-83
2023/03/24 07:08:08;;;;;;;0.47;0.47;;;9.70;99.90;;;;;;4964090;28;20055;-83
2023/03/24 07:10:35;;;;;;;0.30;0.30;;;9.70;99.90;;;;;;4964262;28;20034;-84
2023/03/24 07:13:02;;;;;;;0.45;0.43;;;9.70;99.90;;;;;;4967813;28;20042;-85
2023/03/24 07:15:28;;;;;;;0.40;0.40;;;9.80;99.90;;;;;;4964490;28;20495;-84
2023/03/24 07:17:54;;;;;;;0.20;0.20;;;9.80;99.90;;;;;;4962058;28;20047;-84
2023/03/24 07:20:20;;;;;;;0.30;0.30;;;9.80;99.90;;;;;;4956307;28;20047;-83
2023/03/24 07:22:46;;;;;;;0.32;0.32;;;9.80;99.90;;;;;;4963451;28;20551;-83
2023/03/24 07:25:13;;;;;;;0.40;0.40;;;9.80;99.90;;;;;;4930389;28;20600;-85
2023/03/24 07:27:39;;;;;;;0.35;0.35;;;9.90;99.90;;;;;;4961929;28;20047;-85
2023/03/24 07:30:07;;;;;;;0.45;0.45;;;9.90;99.90;;;;;;4949309;28;20403;-84
2023/03/24 07:32:37;;;;;;;0.38;0.38;;;9.90;99.90;;;;;;4948804;28;20133;-85
2023/03/24 07:35:09;;;;;;;3.80;1.58;;;9.90;99.90;;;;;;4950372;28;20074;-84
2023/03/24 07:37:35;;;;;;;0.60;0.60;;;9.90;99.90;;;;;;4961417;28;20039;-84
2023/03/24 07:40:10;;;;;;;2.20;2.10;;;9.90;99.90;;;;;;4943865;28;20042;-81
2023/03/24 07:42:41;;;;;;;0.40;0.40;;;10.00;99.90;;;;;;4951161;28;20050;-83
2023/03/24 07:45:09;;;;;;;0.47;0.47;;;9.90;99.90;;;;;;4958741;28;20498;-85
2023/03/24 07:47:36;;;;;;;0.47;0.47;;;10.00;99.90;;;;;;4956584;28;20741;-83
2023/03/24 07:50:03;;;;;;;0.32;0.32;;;10.00;99.90;;;;;;4969345;28;20069;-83
2023/03/24 07:52:29;;;;;;;0.50;0.50;;;10.00;99.90;;;;;;4967412;28;20078;-81
2023/03/24 07:54:55;;;;;;;1.95;1.17;;;10.10;99.90;;;;;;4976872;28;20051;-85
2023/03/24 07:57:22;;;;;;;0.38;0.38;;;10.10;99.90;;;;;;4959791;28;20388;-82
2023/03/24 07:59:47;;;;;;;0.38;0.38;;;10.20;99.90;;;;;;4953464;28;20488;-84
2023/03/24 08:02:17;;;;;;;0.35;0.35;;;10.20;99.90;;;;;;5045767;28;20046;-82
2023/03/24 08:04:43;;;;;;;0.30;0.30;;;10.20;99.90;;;;;;4985467;28;20051;-79
2023/03/24 08:07:11;;;;;;;0.25;0.25;;;10.30;99.90;;;;;;4976638;28;20107;-82
2023/03/24 08:09:38;;;;;;;0.30;0.30;;;10.30;99.90;;;;;;4973471;28;20446;-80
2023/03/24 08:12:04;;;;;;;0.90;0.73;;;10.30;99.90;;;;;;4966889;28;20061;-83
2023/03/24 08:14:30;;;;;;;0.80;0.80;;;10.40;99.90;;;;;;4962536;28;20054;-84
2023/03/24 08:16:57;;;;;;;0.50;0.50;;;10.50;99.90;;;;;;4933465;28;20039;-81
2023/03/24 08:19:23;;;;;;;1.95;1.63;;;10.50;99.90;;;;;;4965689;28;20046;-82
2023/03/24 08:21:48;;;;;;;0.40;0.40;;;10.50;99.90;;;;;;4966655;28;20116;-82
2023/03/24 08:24:14;;;;;;;0.40;0.40;;;10.60;99.90;;;;;;4965712;28;20058;-83
2023/03/24 08:26:41;;;;;;;0.20;0.20;;;10.60;99.90;;;;;;4965329;28;20104;-81
2023/03/24 08:29:07;;;;;;;0.40;0.40;;;10.60;99.90;;;;;;4960553;28;20054;-83
2023/03/24 08:31:35;;;;;;;0.40;0.40;;;10.70;99.90;;;;;;4963878;28;20069;-84
2023/03/24 08:34:03;;;;;;;1.58;1.48;;;10.70;99.90;;;;;;4959224;28;20031;-83
2023/03/24 08:36:30;;;;;;;0.80;0.80;;;10.80;99.90;;;;;;4958531;28;20093;-82
2023/03/24 08:38:56;;;;;;;0.40;0.40;;;10.80;99.90;;;;;;4952540;28;20054;-84
2023/03/24 08:41:29;;;;;;;0.32;0.32;;;10.90;99.90;;;;;;4955624;28;20047;-83
2023/03/24 08:43:55;;;;;;;0.45;0.45;;;11.00;99.90;;;;;;4966131;28;20086;-84
2023/03/24 08:46:22;;;;;;;0.80;0.80;;;11.00;99.90;;;;;;4981718;28;20047;-82
2023/03/24 08:48:48;;;;;;;0.77;0.77;;;11.00;99.90;;;;;;4968675;28;20066;-81
2023/03/24 08:51:16;;;;;;;0.32;0.32;;;11.10;99.90;;;;;;4968447;28;20073;-82
2023/03/24 08:53:42;;;;;;;0.20;0.20;;;11.30;99.90;;;;;;4977122;28;20041;-82
2023/03/24 08:56:08;;;;;;;;;;;11.50;99.90;;;;;;4965479;28;20046;-82
2023/03/24 08:58:33;;;;;;;0.30;0.30;;;11.80;99.90;;;;;;4961564;28;19929;-82
2023/03/24 09:01:00;;;;;;;0.50;0.50;;;11.90;99.90;;;;;;4946992;28;20397;-83
2023/03/24 09:03:26;;;;;;;0.70;0.60;;;12.00;99.90;;;;;;4947475;28;20047;-82
2023/03/24 09:05:58;;;;;;;0.35;0.35;;;11.90;99.90;;;;;;5033970;28;20049;-81
2023/03/24 09:08:24;;;;;;;3.03;0.60;;;11.70;99.90;;;;;;4960416;28;20049;-82
2023/03/24 09:10:50;;;;;;;0.32;0.32;;;11.70;99.90;;;;;;4980067;28;20044;-82
2023/03/24 09:13:17;;;;;;;0.30;0.30;;;11.80;99.90;;;;;;4965915;28;20046;-83
2023/03/24 09:15:48;;;;;;;0.40;0.40;;;12.00;99.90;;;;;;4962769;28;20039;-83
2023/03/24 09:18:14;;;;;;;0.30;0.30;;;12.20;99.90;;;;;;4964186;28;20559;-82
2023/03/24 09:20:40;;;;;;;0.30;0.30;;;12.30;99.90;;;;;;4962223;28;20054;-82
2023/03/24 09:23:06;;;;;;;0.47;0.47;;;12.20;99.90;;;;;;4949171;28;20063;-82
2023/03/24 09:25:32;;;;;;;0.95;0.95;;;12.10;99.90;;;;;;4966492;28;20051;-83
2023/03/24 09:27:58;;;;;;;0.40;0.40;;;12.10;99.90;;;;;;4965579;28;20043;-82
2023/03/24 09:30:23;;;;;;;0.70;0.70;;;11.80;99.90;;;;;;4968419;28;20116;-83
2023/03/24 09:32:49;;;;;;;0.93;0.65;;;11.70;99.90;;;;;;4971804;28;20129;-82
2023/03/24 09:35:15;;;;;;;0.30;0.30;;;11.50;99.90;;;;;;4953693;28;20492;-82
2023/03/24 09:37:42;;;;;;;0.43;0.43;;;11.30;99.90;;;;;;4970560;28;20066;-81
2023/03/24 09:40:20;;;;;;;0.93;0.93;;;11.20;99.90;;;;;;4976152;28;20119;-82
2023/03/24 09:42:53;;;;;;;0.28;0.28;;;11.10;99.90;;;;;;4959888;28;20059;-83
2023/03/24 09:45:21;;;;;;;0.20;0.20;;;11.20;99.90;;;;;;4976873;28;20024;-83
2023/03/24 09:48:12;;;;;;;0.57;0.57;;;11.30;99.90;;;;;;4962292;28;20043;-82
2023/03/24 09:50:41;;;;;;;2.22;1.38;;;11.20;99.90;;;;;;4950501;28;20073;-82
2023/03/24 09:53:36;;;;;;;0.30;0.30;;;11.20;99.90;;;;;;4964532;28;20510;-82
2023/03/24 09:56:15;;;;;;;0.30;0.30;;;11.10;99.90;;;;;;4962995;28;20096;-82
2023/03/24 09:58:42;;;;;;;0.40;0.40;;;11.10;99.90;;;;;;4966557;28;20449;-82
2023/03/24 10:01:14;;;;;;;0.50;0.50;;;11.20;99.90;;;;;;4962699;28;20042;-82
2023/03/24 10:03:41;;;;;;;1.50;1.50;;;11.20;99.90;;;;;;4974205;28;20046;-82
2023/03/24 10:06:24;;;;;;;0.52;0.52;;;11.30;99.90;;;;;;4959418;28;20039;-82
2023/03/24 10:09:07;;;;;;;0.57;0.57;;;11.40;99.90;;;;;;4962761;28;20078;-83
2023/03/24 10:11:47;;;;;;;0.90;0.90;;;11.50;99.90;;;;;;4963673;28;20039;-82
2023/03/24 10:14:42;;;;;;;0.28;0.28;;;11.60;99.90;;;;;;4962369;28;20434;-82
2023/03/24 10:17:43;;;;;;;1.25;1.15;;;11.80;99.90;;;;;;4963046;28;20039;-82
2023/03/24 10:20:12;;;;;;;0.30;0.30;;;11.80;99.90;;;;;;4978450;28;20050;-82
2023/03/24 10:22:49;;;;;;;0.30;0.30;;;11.70;99.90;;;;;;4962278;28;20145;-82
2023/03/24 10:25:51;;;;;;;0.40;0.40;;;11.80;99.90;;;;;;4961614;28;20070;-81
2023/03/24 10:28:53;;;;;;;0.50;0.50;;;12.00;99.90;;;;;;4965852;28;20065;-83
2023/03/24 10:31:32;;;;;;;1.50;1.50;;;12.20;99.90;;;;;;4965607;28;20488;-82
2023/03/24 10:33:58;;;;;;;0.30;0.30;;;12.40;99.90;;;;;;4964810;28;20596;-82
2023/03/24 10:36:26;;;;;;;0.50;0.50;;;12.60;99.90;;;;;;4953005;28;20176;-81
2023/03/24 10:38:54;;;;;;;0.30;0.30;;;12.60;99.90;;;;;;4964286;28;20051;-82
2023/03/24 10:41:23;;;;;;;0.68;0.68;;;12.40;99.90;;;;;;4966410;28;20395;-82
2023/03/24 10:43:50;;;;;;;0.30;0.30;;;12.40;99.90;;;;;;4965424;28;20119;-82
2023/03/24 10:46:30;;;;;;;0.30;0.30;;;12.40;99.90;;;;;;4954256;28;20058;-82
2023/03/24 10:49:18;;;;;;;4.15;1.48;;;12.40;99.90;;;;;;4961060;28;20042;-82
2023/03/24 10:51:50;;;;;;;0.25;0.25;;;12.60;99.90;;;;;;4958197;28;20051;-82
2023/03/24 10:54:19;;;;;;;0.30;0.30;;;12.70;99.90;;;;;;4961623;28;20042;-82
2023/03/24 10:57:04;;;;;;;1.75;1.65;;;12.90;99.90;;;;;;4962418;28;20042;-81
2023/03/24 10:59:38;;;;;;;0.20;0.20;;;12.90;99.90;;;;;;4959074;28;20100;-82
2023/03/24 11:02:10;;;;;;;0.70;0.70;;;13.00;99.90;;;;;;4960065;28;20592;-81
2023/03/24 11:04:48;;;;;;;0.30;0.30;;;13.00;99.90;;;;;;4962439;28;20051;-81
2023/03/24 11:07:19;;;;;;;0.20;0.20;;;12.70;99.90;;;;;;4958988;28;20778;-83
2023/03/24 11:10:04;;;;;;;7.22;2.25;;;12.50;99.90;;;;;;4957166;28;20122;-83
2023/03/24 11:12:36;;;;;;;0.30;0.30;;;12.30;99.90;;;;;;4959919;28;20574;-83
2023/03/24 11:15:29;;;;;;;0.30;0.30;;;12.30;99.90;;;;;;4938275;28;20042;-82
2023/03/24 11:18:14;;;;;;;0.20;0.20;;;12.20;99.90;;;;;;4964737;28;20058;-82
2023/03/24 11:20:57;;;;;;;0.50;0.50;;;12.20;99.90;;;;;;4978065;28;20150;-82
2023/03/24 11:23:39;;;;;;;0.88;0.82;;;12.10;99.90;;;;;;4963742;28;20431;-83
2023/03/24 11:26:22;;;;;;;0.32;0.32;;;12.10;99.90;;;;;;4986635;28;20418;-83
2023/03/24 11:28:54;;;;;;;0.20;0.20;;;12.30;99.90;;;;;;4967047;28;20090;-82
2023/03/24 11:31:29;;;;;;;1.20;1.20;;;12.50;99.90;;;;;;4972088;28;20034;-82
2023/03/24 11:34:06;;;;;;;1.55;0.75;;;12.80;99.90;;;;;;4954993;28;20085;-83
2023/03/24 11:36:32;;;;;;;0.30;0.30;;;13.10;99.90;;;;;;4950147;28;20045;-82
2023/03/24 11:39:16;;;;;;;;;;;13.20;99.90;;;;;;4950011;28;20130;-82
2023/03/24 11:42:02;;;;;;;6.70;1.15;;;13.10;99.90;;;;;;4984634;28;20064;-81
2023/03/24 11:44:40;;;;;;;0.30;0.30;;;12.90;99.90;;;;;;4962315;28;20051;-82
2023/03/24 11:47:09;;;;;;;0.98;0.98;;;13.00;99.90;;;;;;4983239;28;20112;-82
2023/03/24 11:49:44;;;;;;;0.40;0.40;;;12.90;99.90;;;;;;4952104;28;20062;-83
2023/03/24 11:52:33;;;;;;;0.40;0.40;;;12.90;99.90;;;;;;4964860;28;20077;-82
2023/03/24 11:54:59;;;;;;;0.20;0.20;;;13.00;99.90;;;;;;4967256;28;20039;-83
2023/03/24 11:57:40;;;;;;;0.40;0.40;;;13.20;99.90;;;;;;4967088;28;20053;-84
2023/03/24 12:00:20;;;;;;;0.30;0.30;;;13.50;99.90;;;;;;4978787;28;20042;-83
2023/03/24 12:03:33;;;;;;;0.25;0.25;;;13.60;99.90;;;;;;4964490;28;20173;-84
2023/03/24 12:06:32;;;;;;;0.40;0.40;;;13.90;99.90;;;;;;4958034;28;20092;-85
2023/03/24 12:08:57;;;;;;;0.20;0.20;;;13.80;99.90;;;;;;4970788;28;20063;-85
2023/03/24 12:11:41;;;;;;;0.28;0.28;;;13.90;99.90;;;;;;4967981;28;20089;-84
2023/03/24 12:14:08;;;;;;;0.32;0.32;;;14.00;99.90;;;;;;4966213;28;20112;-85
2023/03/24 12:17:04;;;;;;;0.30;0.30;;;14.20;99.90;;;;;;4968230;28;20382;-84
2023/03/24 12:20:00;;;;;;;0.40;0.40;;;14.30;99.90;;;;;;4967011;28;20050;-84
2023/03/24 12:22:42;;;;;;;0.30;0.30;;;14.20;99.90;;;;;;4948602;28;20365;-85
2023/03/24 12:25:20;;;;;;;0.68;0.68;;;14.00;99.90;;;;;;4964323;28;20047;-86
2023/03/24 12:28:13;;;;;;;1.23;1.20;;;13.60;99.90;;;;;;4965745;28;20414;-84
2023/03/24 12:30:44;;;;;;;0.30;0.30;;;13.30;99.90;;;;;;4953879;28;20080;-83
2023/03/24 12:33:16;;;;;;;0.35;0.35;;;13.10;99.90;;;;;;4932819;28;20047;-84
2023/03/24 12:35:59;;;;;;;0.60;0.60;;;13.10;99.90;;;;;;4955835;28;20043;-85
2023/03/24 12:39:04;;;;;;;0.65;0.65;;;13.00;99.90;;;;;;4958210;28;20063;-84
2023/03/24 12:41:48;;;;;;;0.32;0.32;;;12.80;99.90;;;;;;4959413;28;20053;-84
2023/03/24 12:44:36;;;;;;;4.88;1.17;;;12.80;99.90;;;;;;4962493;28;20059;-85
2023/03/24 12:47:20;;;;;;;0.30;0.30;;;12.70;99.90;;;;;;4964490;28;20077;-85
2023/03/24 12:50:27;;;;;;;0.30;0.30;;;12.70;99.90;;;;;;4962034;28;20059;-84
2023/03/24 12:53:16;;;;;;;0.50;0.50;;;12.70;99.90;;;;;;4971062;28;20046;-85
2023/03/24 12:55:50;;;;;;;1.13;1.13;;;12.80;99.90;;;;;;4951024;28;20369;-85
2023/03/24 12:58:31;;;;;;;0.40;0.40;;;12.80;99.90;;;;;;4947552;28;20055;-86
2023/03/24 13:01:06;;;;;;;0.30;0.30;;;12.90;99.90;;;;;;4978746;28;20058;-86
2023/03/24 13:03:47;;;;;;;0.57;0.50;;;13.00;99.90;;;;;;4963702;28;20107;-87
2023/03/24 13:06:28;;;;;;;0.55;0.55;;;13.20;99.90;;;;;;4957511;28;20103;-86
2023/03/24 13:09:08;;;;;;;0.30;0.30;;;13.40;99.90;;;;;;4958922;28;20106;-88
2023/03/24 13:11:59;;;;;;;0.20;0.20;;;13.60;99.90;;;;;;4949830;28;20070;-86
2023/03/24 13:14:58;;;;;;;0.20;0.20;;;13.90;99.90;;;;;;4971372;28;20038;-87
2023/03/24 13:17:31;;;;;;;0.95;0.63;;;14.00;99.90;;;;;;4947403;28;20039;-88
2023/03/24 13:20:00;;;;;;;0.25;0.25;;;14.00;99.90;;;;;;4954191;28;20476;-87